sensor_id;sensor_type;location;lat;lon;timestamp;P1;durP1;ratioP1;P2;durP2;ratioP2
9821;SDS011;4950;46.042;14.472;2022-12-20T00:00:10;31.17;;;25.73;;
9821;SDS011;4950;46.042;14.472;2022-12-20T00:02:38;33.60;;;26.97;;
9821;SDS011;4950;46.042;14.472;2022-12-20T00:05:06;33.67;;;26.37;;
9821;SDS011;4950;46.042;14.472;2022-12-20T00:07:33;31.43;;;26.00;;
9821;SDS011;4950;46.042;14.472;2022-12-20T00:10:00;30.87;;;24.27;;
9821;SDS011;4950;46.042;14.472;2022-12-20T00:12:26;32.87;;;26.23;;
9821;SDS011;4950;46.042;14.472;2022-12-20T00:14:53;31.43;;;25.23;;
9821;SDS011;4950;46.042;14.472;2022-12-20T00:17:20;32.63;;;26.27;;
9821;SDS011;4950;46.042;14.472;2022-12-20T00:19:46;32.17;;;25.37;;
9821;SDS011;4950;46.042;14.472;2022-12-20T00:22:15;34.07;;;24.97;;
9821;SDS011;4950;46.042;14.472;2022-12-20T00:24:41;32.00;;;26.07;;
9821;SDS011;4950;46.042;14.472;2022-12-20T00:27:08;36.10;;;27.90;;
9821;SDS011;4950;46.042;14.472;2022-12-20T00:29:35;34.50;;;28.40;;
9821;SDS011;4950;46.042;14.472;2022-12-20T00:32:01;35.23;;;27.10;;
9821;SDS011;4950;46.042;14.472;2022-12-20T00:34:28;34.03;;;27.17;;
9821;SDS011;4950;46.042;14.472;2022-12-20T00:36:55;31.80;;;26.17;;
9821;SDS011;4950;46.042;14.472;2022-12-20T00:39:23;32.37;;;26.63;;
9821;SDS011;4950;46.042;14.472;2022-12-20T00:41:49;31.23;;;26.00;;
9821;SDS011;4950;46.042;14.472;2022-12-20T00:44:16;33.90;;;26.27;;
9821;SDS011;4950;46.042;14.472;2022-12-20T00:46:42;33.80;;;26.73;;
9821;SDS011;4950;46.042;14.472;2022-12-20T00:49:09;33.40;;;25.67;;
9821;SDS011;4950;46.042;14.472;2022-12-20T00:51:36;32.17;;;26.20;;
9821;SDS011;4950;46.042;14.472;2022-12-20T00:54:02;32.63;;;26.10;;
9821;SDS011;4950;46.042;14.472;2022-12-20T00:56:30;33.43;;;26.90;;
9821;SDS011;4950;46.042;14.472;2022-12-20T00:58:57;36.63;;;26.80;;
9821;SDS011;4950;46.042;14.472;2022-12-20T01:01:25;35.67;;;27.23;;
9821;SDS011;4950;46.042;14.472;2022-12-20T01:03:54;33.83;;;27.67;;
9821;SDS011;4950;46.042;14.472;2022-12-20T01:06:21;34.30;;;26.83;;
9821;SDS011;4950;46.042;14.472;2022-12-20T01:08:48;35.93;;;28.03;;
9821;SDS011;4950;46.042;14.472;2022-12-20T01:11:15;37.00;;;29.07;;
9821;SDS011;4950;46.042;14.472;2022-12-20T01:13:46;36.93;;;28.07;;
9821;SDS011;4950;46.042;14.472;2022-12-20T01:16:15;38.53;;;28.63;;
9821;SDS011;4950;46.042;14.472;2022-12-20T01:18:44;41.17;;;29.27;;
9821;SDS011;4950;46.042;14.472;2022-12-20T01:21:13;37.33;;;28.83;;
9821;SDS011;4950;46.042;14.472;2022-12-20T01:23:41;38.70;;;28.97;;
9821;SDS011;4950;46.042;14.472;2022-12-20T01:26:10;36.30;;;28.70;;
9821;SDS011;4950;46.042;14.472;2022-12-20T01:28:39;38.60;;;29.27;;
9821;SDS011;4950;46.042;14.472;2022-12-20T01:31:09;38.97;;;29.13;;
9821;SDS011;4950;46.042;14.472;2022-12-20T01:33:37;38.53;;;28.60;;
9821;SDS011;4950;46.042;14.472;2022-12-20T01:36:05;39.13;;;28.60;;
9821;SDS011;4950;46.042;14.472;2022-12-20T01:38:33;37.67;;;27.33;;
9821;SDS011;4950;46.042;14.472;2022-12-20T01:41:00;33.53;;;26.73;;
9821;SDS011;4950;46.042;14.472;2022-12-20T01:43:43;36.23;;;27.77;;
9821;SDS011;4950;46.042;14.472;2022-12-20T01:46:14;37.97;;;28.20;;
9821;SDS011;4950;46.042;14.472;2022-12-20T01:48:41;43.23;;;27.63;;
9821;SDS011;4950;46.042;14.472;2022-12-20T01:51:11;38.73;;;28.30;;
9821;SDS011;4950;46.042;14.472;2022-12-20T01:53:37;39.83;;;27.87;;
9821;SDS011;4950;46.042;14.472;2022-12-20T01:56:04;38.87;;;27.80;;
9821;SDS011;4950;46.042;14.472;2022-12-20T01:58:33;40.63;;;28.80;;
9821;SDS011;4950;46.042;14.472;2022-12-20T02:01:04;36.07;;;27.53;;
9821;SDS011;4950;46.042;14.472;2022-12-20T02:03:32;39.87;;;28.67;;
9821;SDS011;4950;46.042;14.472;2022-12-20T02:06:08;37.73;;;28.27;;
9821;SDS011;4950;46.042;14.472;2022-12-20T02:08:40;37.67;;;27.70;;
9821;SDS011;4950;46.042;14.472;2022-12-20T02:11:09;37.07;;;26.23;;
9821;SDS011;4950;46.042;14.472;2022-12-20T02:13:50;39.10;;;27.57;;
9821;SDS011;4950;46.042;14.472;2022-12-20T02:16:29;39.53;;;28.77;;
9821;SDS011;4950;46.042;14.472;2022-12-20T02:19:08;41.40;;;29.87;;
9821;SDS011;4950;46.042;14.472;2022-12-20T02:21:49;42.63;;;28.00;;
9821;SDS011;4950;46.042;14.472;2022-12-20T02:24:32;40.13;;;26.20;;
9821;SDS011;4950;46.042;14.472;2022-12-20T02:27:28;35.83;;;26.47;;
9821;SDS011;4950;46.042;14.472;2022-12-20T02:30:10;35.00;;;24.57;;
9821;SDS011;4950;46.042;14.472;2022-12-20T02:32:41;35.37;;;25.80;;
9821;SDS011;4950;46.042;14.472;2022-12-20T02:35:14;38.87;;;25.47;;
9821;SDS011;4950;46.042;14.472;2022-12-20T02:37:46;38.40;;;26.10;;
9821;SDS011;4950;46.042;14.472;2022-12-20T02:40:18;34.37;;;26.00;;
9821;SDS011;4950;46.042;14.472;2022-12-20T02:42:49;33.83;;;24.37;;
9821;SDS011;4950;46.042;14.472;2022-12-20T02:45:23;32.03;;;24.37;;
9821;SDS011;4950;46.042;14.472;2022-12-20T02:47:52;33.93;;;25.27;;
9821;SDS011;4950;46.042;14.472;2022-12-20T02:50:25;32.23;;;24.50;;
9821;SDS011;4950;46.042;14.472;2022-12-20T02:52:56;32.13;;;24.87;;
9821;SDS011;4950;46.042;14.472;2022-12-20T02:55:26;34.13;;;24.30;;
9821;SDS011;4950;46.042;14.472;2022-12-20T02:58:01;29.07;;;23.47;;
9821;SDS011;4950;46.042;14.472;2022-12-20T03:00:37;35.57;;;25.80;;
9821;SDS011;4950;46.042;14.472;2022-12-20T03:03:10;34.07;;;25.33;;
9821;SDS011;4950;46.042;14.472;2022-12-20T03:05:49;35.97;;;25.07;;
9821;SDS011;4950;46.042;14.472;2022-12-20T03:08:17;32.87;;;25.23;;
9821;SDS011;4950;46.042;14.472;2022-12-20T03:10:44;34.10;;;25.30;;
9821;SDS011;4950;46.042;14.472;2022-12-20T03:13:11;31.23;;;24.40;;
9821;SDS011;4950;46.042;14.472;2022-12-20T03:15:39;30.47;;;24.80;;
9821;SDS011;4950;46.042;14.472;2022-12-20T03:18:06;31.90;;;24.80;;
9821;SDS011;4950;46.042;14.472;2022-12-20T03:20:32;32.90;;;24.90;;
9821;SDS011;4950;46.042;14.472;2022-12-20T03:22:59;32.13;;;24.67;;
9821;SDS011;4950;46.042;14.472;2022-12-20T03:25:26;31.20;;;24.27;;
9821;SDS011;4950;46.042;14.472;2022-12-20T03:27:53;32.07;;;24.93;;
9821;SDS011;4950;46.042;14.472;2022-12-20T03:30:20;32.93;;;25.40;;
9821;SDS011;4950;46.042;14.472;2022-12-20T03:32:48;30.97;;;24.37;;
9821;SDS011;4950;46.042;14.472;2022-12-20T03:35:14;30.70;;;23.60;;
9821;SDS011;4950;46.042;14.472;2022-12-20T03:37:41;29.53;;;22.53;;
9821;SDS011;4950;46.042;14.472;2022-12-20T03:40:08;32.33;;;24.60;;
9821;SDS011;4950;46.042;14.472;2022-12-20T03:42:36;32.00;;;23.77;;
9821;SDS011;4950;46.042;14.472;2022-12-20T03:45:03;34.17;;;24.70;;
9821;SDS011;4950;46.042;14.472;2022-12-20T03:47:30;31.77;;;24.13;;
9821;SDS011;4950;46.042;14.472;2022-12-20T03:49:58;30.13;;;22.83;;
9821;SDS011;4950;46.042;14.472;2022-12-20T03:52:25;30.73;;;23.30;;
9821;SDS011;4950;46.042;14.472;2022-12-20T03:54:51;28.67;;;22.37;;
9821;SDS011;4950;46.042;14.472;2022-12-20T03:57:18;28.13;;;23.07;;
9821;SDS011;4950;46.042;14.472;2022-12-20T03:59:45;28.13;;;22.27;;
9821;SDS011;4950;46.042;14.472;2022-12-20T04:02:11;28.83;;;22.83;;
9821;SDS011;4950;46.042;14.472;2022-12-20T04:04:38;29.23;;;23.63;;
9821;SDS011;4950;46.042;14.472;2022-12-20T04:07:06;30.30;;;22.17;;
9821;SDS011;4950;46.042;14.472;2022-12-20T04:09:33;30.73;;;24.67;;
9821;SDS011;4950;46.042;14.472;2022-12-20T04:12:00;30.93;;;23.97;;
9821;SDS011;4950;46.042;14.472;2022-12-20T04:14:27;32.30;;;24.17;;
9821;SDS011;4950;46.042;14.472;2022-12-20T04:16:53;27.53;;;22.40;;
9821;SDS011;4950;46.042;14.472;2022-12-20T04:19:20;30.30;;;23.00;;
9821;SDS011;4950;46.042;14.472;2022-12-20T04:21:47;29.63;;;22.83;;
9821;SDS011;4950;46.042;14.472;2022-12-20T04:24:15;29.10;;;22.57;;
9821;SDS011;4950;46.042;14.472;2022-12-20T04:26:42;28.60;;;23.13;;
9821;SDS011;4950;46.042;14.472;2022-12-20T04:29:08;28.57;;;22.80;;
9821;SDS011;4950;46.042;14.472;2022-12-20T04:31:35;27.70;;;22.57;;
9821;SDS011;4950;46.042;14.472;2022-12-20T04:34:02;30.13;;;24.93;;
9821;SDS011;4950;46.042;14.472;2022-12-20T04:36:28;30.47;;;24.67;;
9821;SDS011;4950;46.042;14.472;2022-12-20T04:38:55;28.30;;;22.47;;
9821;SDS011;4950;46.042;14.472;2022-12-20T04:41:23;30.70;;;23.80;;
9821;SDS011;4950;46.042;14.472;2022-12-20T04:43:51;32.47;;;24.10;;
9821;SDS011;4950;46.042;14.472;2022-12-20T04:46:19;31.60;;;24.77;;
9821;SDS011;4950;46.042;14.472;2022-12-20T04:48:46;31.67;;;25.10;;
9821;SDS011;4950;46.042;14.472;2022-12-20T04:51:13;31.70;;;24.63;;
9821;SDS011;4950;46.042;14.472;2022-12-20T04:53:39;32.53;;;25.00;;
9821;SDS011;4950;46.042;14.472;2022-12-20T04:56:12;31.40;;;24.60;;
9821;SDS011;4950;46.042;14.472;2022-12-20T04:58:41;30.57;;;24.57;;
9821;SDS011;4950;46.042;14.472;2022-12-20T05:01:07;29.67;;;23.10;;
9821;SDS011;4950;46.042;14.472;2022-12-20T05:03:34;28.47;;;22.40;;
9821;SDS011;4950;46.042;14.472;2022-12-20T05:06:01;28.80;;;23.80;;
9821;SDS011;4950;46.042;14.472;2022-12-20T05:08:28;29.93;;;23.17;;
9821;SDS011;4950;46.042;14.472;2022-12-20T05:10:55;31.20;;;23.90;;
9821;SDS011;4950;46.042;14.472;2022-12-20T05:13:21;30.43;;;24.10;;
9821;SDS011;4950;46.042;14.472;2022-12-20T05:15:50;33.97;;;25.43;;
9821;SDS011;4950;46.042;14.472;2022-12-20T05:18:18;30.70;;;23.20;;
9821;SDS011;4950;46.042;14.472;2022-12-20T05:20:45;29.90;;;23.90;;
9821;SDS011;4950;46.042;14.472;2022-12-20T05:23:11;30.13;;;24.07;;
9821;SDS011;4950;46.042;14.472;2022-12-20T05:25:56;31.77;;;23.93;;
9821;SDS011;4950;46.042;14.472;2022-12-20T05:28:40;27.70;;;21.93;;
9821;SDS011;4950;46.042;14.472;2022-12-20T05:31:08;27.73;;;22.03;;
9821;SDS011;4950;46.042;14.472;2022-12-20T05:33:35;30.83;;;23.13;;
9821;SDS011;4950;46.042;14.472;2022-12-20T05:36:02;29.20;;;22.87;;
9821;SDS011;4950;46.042;14.472;2022-12-20T05:38:29;29.50;;;23.10;;
9821;SDS011;4950;46.042;14.472;2022-12-20T05:40:55;32.37;;;25.07;;
9821;SDS011;4950;46.042;14.472;2022-12-20T05:43:22;30.63;;;24.07;;
9821;SDS011;4950;46.042;14.472;2022-12-20T05:45:50;28.70;;;22.43;;
9821;SDS011;4950;46.042;14.472;2022-12-20T05:48:19;28.43;;;23.00;;
9821;SDS011;4950;46.042;14.472;2022-12-20T05:50:46;31.83;;;23.50;;
9821;SDS011;4950;46.042;14.472;2022-12-20T05:53:13;31.73;;;24.03;;
9821;SDS011;4950;46.042;14.472;2022-12-20T05:55:42;34.27;;;25.70;;
9821;SDS011;4950;46.042;14.472;2022-12-20T05:58:09;35.77;;;26.27;;
9821;SDS011;4950;46.042;14.472;2022-12-20T06:00:37;36.40;;;25.87;;
9821;SDS011;4950;46.042;14.472;2022-12-20T06:03:04;32.57;;;24.77;;
9821;SDS011;4950;46.042;14.472;2022-12-20T06:05:32;33.27;;;25.37;;
9821;SDS011;4950;46.042;14.472;2022-12-20T06:07:59;35.53;;;26.60;;
9821;SDS011;4950;46.042;14.472;2022-12-20T06:10:25;33.03;;;26.17;;
9821;SDS011;4950;46.042;14.472;2022-12-20T06:12:52;35.13;;;25.83;;
9821;SDS011;4950;46.042;14.472;2022-12-20T06:15:18;43.70;;;31.17;;
9821;SDS011;4950;46.042;14.472;2022-12-20T06:17:45;47.47;;;33.17;;
9821;SDS011;4950;46.042;14.472;2022-12-20T06:20:12;42.43;;;30.07;;
9821;SDS011;4950;46.042;14.472;2022-12-20T06:22:40;39.83;;;28.93;;
9821;SDS011;4950;46.042;14.472;2022-12-20T06:25:07;42.83;;;30.13;;
9821;SDS011;4950;46.042;14.472;2022-12-20T06:27:34;40.03;;;29.73;;
9821;SDS011;4950;46.042;14.472;2022-12-20T06:30:01;38.70;;;29.10;;
9821;SDS011;4950;46.042;14.472;2022-12-20T06:32:28;45.77;;;30.30;;
9821;SDS011;4950;46.042;14.472;2022-12-20T06:34:55;37.43;;;28.33;;
9821;SDS011;4950;46.042;14.472;2022-12-20T06:37:21;37.90;;;29.00;;
9821;SDS011;4950;46.042;14.472;2022-12-20T06:39:49;40.27;;;30.03;;
9821;SDS011;4950;46.042;14.472;2022-12-20T06:42:16;37.30;;;28.67;;
9821;SDS011;4950;46.042;14.472;2022-12-20T06:44:43;36.53;;;28.10;;
9821;SDS011;4950;46.042;14.472;2022-12-20T06:47:09;35.03;;;27.50;;
9821;SDS011;4950;46.042;14.472;2022-12-20T06:49:36;36.13;;;26.43;;
9821;SDS011;4950;46.042;14.472;2022-12-20T06:52:03;34.03;;;25.67;;
9821;SDS011;4950;46.042;14.472;2022-12-20T06:54:30;34.13;;;26.93;;
9821;SDS011;4950;46.042;14.472;2022-12-20T06:56:58;38.47;;;26.60;;
9821;SDS011;4950;46.042;14.472;2022-12-20T06:59:24;36.07;;;27.70;;
9821;SDS011;4950;46.042;14.472;2022-12-20T07:01:51;37.40;;;27.50;;
9821;SDS011;4950;46.042;14.472;2022-12-20T07:04:17;35.77;;;26.37;;
9821;SDS011;4950;46.042;14.472;2022-12-20T07:06:44;35.37;;;26.70;;
9821;SDS011;4950;46.042;14.472;2022-12-20T07:09:11;37.30;;;28.67;;
9821;SDS011;4950;46.042;14.472;2022-12-20T07:11:37;38.63;;;27.83;;
9821;SDS011;4950;46.042;14.472;2022-12-20T07:14:06;34.53;;;25.87;;
9821;SDS011;4950;46.042;14.472;2022-12-20T07:16:32;32.07;;;24.90;;
9821;SDS011;4950;46.042;14.472;2022-12-20T07:19:00;35.63;;;26.40;;
9821;SDS011;4950;46.042;14.472;2022-12-20T07:21:26;33.07;;;24.70;;
9821;SDS011;4950;46.042;14.472;2022-12-20T07:23:53;35.37;;;27.50;;
9821;SDS011;4950;46.042;14.472;2022-12-20T07:26:20;35.47;;;27.30;;
9821;SDS011;4950;46.042;14.472;2022-12-20T07:28:47;35.30;;;26.70;;
9821;SDS011;4950;46.042;14.472;2022-12-20T07:31:15;36.50;;;27.00;;
9821;SDS011;4950;46.042;14.472;2022-12-20T07:33:41;33.90;;;26.03;;
9821;SDS011;4950;46.042;14.472;2022-12-20T07:36:09;35.73;;;26.77;;
9821;SDS011;4950;46.042;14.472;2022-12-20T07:38:36;36.40;;;27.67;;
9821;SDS011;4950;46.042;14.472;2022-12-20T07:41:05;35.83;;;26.83;;
9821;SDS011;4950;46.042;14.472;2022-12-20T07:43:33;36.53;;;28.00;;
9821;SDS011;4950;46.042;14.472;2022-12-20T07:46:00;36.13;;;26.50;;
9821;SDS011;4950;46.042;14.472;2022-12-20T07:48:28;35.17;;;26.43;;
9821;SDS011;4950;46.042;14.472;2022-12-20T07:50:55;34.03;;;25.53;;
9821;SDS011;4950;46.042;14.472;2022-12-20T07:53:26;32.43;;;24.43;;
9821;SDS011;4950;46.042;14.472;2022-12-20T07:55:56;32.90;;;25.23;;
9821;SDS011;4950;46.042;14.472;2022-12-20T07:58:24;33.00;;;25.27;;
9821;SDS011;4950;46.042;14.472;2022-12-20T08:00:52;33.07;;;25.37;;
9821;SDS011;4950;46.042;14.472;2022-12-20T08:03:19;37.20;;;26.03;;
9821;SDS011;4950;46.042;14.472;2022-12-20T08:05:50;34.47;;;25.03;;
9821;SDS011;4950;46.042;14.472;2022-12-20T08:08:20;35.90;;;27.10;;
9821;SDS011;4950;46.042;14.472;2022-12-20T08:10:47;36.60;;;25.50;;
9821;SDS011;4950;46.042;14.472;2022-12-20T08:13:15;34.77;;;25.70;;
9821;SDS011;4950;46.042;14.472;2022-12-20T08:15:42;35.53;;;26.87;;
9821;SDS011;4950;46.042;14.472;2022-12-20T08:18:08;34.47;;;24.77;;
9821;SDS011;4950;46.042;14.472;2022-12-20T08:20:35;31.87;;;24.97;;
9821;SDS011;4950;46.042;14.472;2022-12-20T08:23:03;36.57;;;26.43;;
9821;SDS011;4950;46.042;14.472;2022-12-20T08:25:30;35.50;;;26.23;;
9821;SDS011;4950;46.042;14.472;2022-12-20T08:27:56;35.47;;;27.37;;
9821;SDS011;4950;46.042;14.472;2022-12-20T08:30:25;35.17;;;26.20;;
9821;SDS011;4950;46.042;14.472;2022-12-20T08:32:52;33.30;;;25.33;;
9821;SDS011;4950;46.042;14.472;2022-12-20T08:35:19;32.40;;;24.97;;
9821;SDS011;4950;46.042;14.472;2022-12-20T08:37:46;33.07;;;25.10;;
9821;SDS011;4950;46.042;14.472;2022-12-20T08:40:14;34.20;;;26.07;;
9821;SDS011;4950;46.042;14.472;2022-12-20T08:42:40;33.57;;;25.50;;
9821;SDS011;4950;46.042;14.472;2022-12-20T08:45:07;35.43;;;26.43;;
9821;SDS011;4950;46.042;14.472;2022-12-20T08:47:34;32.63;;;25.07;;
9821;SDS011;4950;46.042;14.472;2022-12-20T08:50:01;34.80;;;26.37;;
9821;SDS011;4950;46.042;14.472;2022-12-20T08:52:28;31.30;;;24.60;;
9821;SDS011;4950;46.042;14.472;2022-12-20T08:54:54;31.47;;;24.13;;
9821;SDS011;4950;46.042;14.472;2022-12-20T08:57:22;33.23;;;25.33;;
9821;SDS011;4950;46.042;14.472;2022-12-20T08:59:49;31.80;;;25.60;;
9821;SDS011;4950;46.042;14.472;2022-12-20T09:02:16;31.00;;;24.80;;
9821;SDS011;4950;46.042;14.472;2022-12-20T09:04:42;30.40;;;24.63;;
9821;SDS011;4950;46.042;14.472;2022-12-20T09:07:09;31.93;;;23.97;;
9821;SDS011;4950;46.042;14.472;2022-12-20T09:09:36;31.57;;;24.80;;
9821;SDS011;4950;46.042;14.472;2022-12-20T09:12:02;30.73;;;24.37;;
9821;SDS011;4950;46.042;14.472;2022-12-20T09:14:31;29.87;;;23.40;;
9821;SDS011;4950;46.042;14.472;2022-12-20T09:16:57;31.57;;;23.83;;
9821;SDS011;4950;46.042;14.472;2022-12-20T09:19:24;30.53;;;23.80;;
9821;SDS011;4950;46.042;14.472;2022-12-20T09:21:51;31.60;;;23.60;;
9821;SDS011;4950;46.042;14.472;2022-12-20T09:24:19;30.60;;;24.13;;
9821;SDS011;4950;46.042;14.472;2022-12-20T09:26:46;31.93;;;24.03;;
9821;SDS011;4950;46.042;14.472;2022-12-20T09:29:12;31.30;;;23.63;;
9821;SDS011;4950;46.042;14.472;2022-12-20T09:31:40;30.00;;;23.20;;
9821;SDS011;4950;46.042;14.472;2022-12-20T09:34:07;29.30;;;22.70;;
9821;SDS011;4950;46.042;14.472;2022-12-20T09:36:35;31.63;;;23.90;;
9821;SDS011;4950;46.042;14.472;2022-12-20T09:39:02;30.47;;;24.00;;
9821;SDS011;4950;46.042;14.472;2022-12-20T09:41:30;29.23;;;23.93;;
9821;SDS011;4950;46.042;14.472;2022-12-20T09:44:03;33.67;;;24.63;;
9821;SDS011;4950;46.042;14.472;2022-12-20T09:46:37;31.43;;;25.30;;
9821;SDS011;4950;46.042;14.472;2022-12-20T09:49:07;35.53;;;26.00;;
9821;SDS011;4950;46.042;14.472;2022-12-20T09:51:44;34.60;;;26.27;;
9821;SDS011;4950;46.042;14.472;2022-12-20T09:54:27;33.67;;;27.30;;
9821;SDS011;4950;46.042;14.472;2022-12-20T09:57:02;33.27;;;25.63;;
9821;SDS011;4950;46.042;14.472;2022-12-20T09:59:35;32.20;;;25.73;;
9821;SDS011;4950;46.042;14.472;2022-12-20T10:02:07;34.53;;;26.93;;
9821;SDS011;4950;46.042;14.472;2022-12-20T10:04:36;31.13;;;25.40;;
9821;SDS011;4950;46.042;14.472;2022-12-20T10:07:07;33.07;;;25.97;;
9821;SDS011;4950;46.042;14.472;2022-12-20T10:10:02;35.93;;;26.43;;
9821;SDS011;4950;46.042;14.472;2022-12-20T10:12:55;35.00;;;26.60;;
9821;SDS011;4950;46.042;14.472;2022-12-20T10:15:27;31.47;;;26.10;;
9821;SDS011;4950;46.042;14.472;2022-12-20T10:18:02;37.33;;;29.37;;
9821;SDS011;4950;46.042;14.472;2022-12-20T10:20:49;37.40;;;28.87;;
9821;SDS011;4950;46.042;14.472;2022-12-20T10:23:23;35.67;;;27.10;;
9821;SDS011;4950;46.042;14.472;2022-12-20T10:25:54;40.83;;;30.17;;
9821;SDS011;4950;46.042;14.472;2022-12-20T10:28:24;36.40;;;29.00;;
9821;SDS011;4950;46.042;14.472;2022-12-20T10:30:53;34.97;;;26.83;;
9821;SDS011;4950;46.042;14.472;2022-12-20T10:33:20;36.33;;;28.63;;
9821;SDS011;4950;46.042;14.472;2022-12-20T10:35:49;40.00;;;28.17;;
9821;SDS011;4950;46.042;14.472;2022-12-20T10:38:16;41.23;;;29.47;;
9821;SDS011;4950;46.042;14.472;2022-12-20T10:40:46;36.03;;;28.20;;
9821;SDS011;4950;46.042;14.472;2022-12-20T10:43:14;38.83;;;28.83;;
9821;SDS011;4950;46.042;14.472;2022-12-20T10:45:44;36.97;;;27.80;;
9821;SDS011;4950;46.042;14.472;2022-12-20T10:48:25;37.90;;;28.30;;
9821;SDS011;4950;46.042;14.472;2022-12-20T10:50:57;34.93;;;26.93;;
9821;SDS011;4950;46.042;14.472;2022-12-20T10:53:26;33.43;;;26.23;;
9821;SDS011;4950;46.042;14.472;2022-12-20T10:56:04;35.53;;;27.73;;
9821;SDS011;4950;46.042;14.472;2022-12-20T10:58:38;36.63;;;27.97;;
9821;SDS011;4950;46.042;14.472;2022-12-20T11:01:05;38.50;;;28.03;;
9821;SDS011;4950;46.042;14.472;2022-12-20T11:03:49;33.93;;;26.67;;
9821;SDS011;4950;46.042;14.472;2022-12-20T11:06:21;33.00;;;25.83;;
9821;SDS011;4950;46.042;14.472;2022-12-20T11:08:49;34.20;;;27.17;;
9821;SDS011;4950;46.042;14.472;2022-12-20T11:11:17;33.20;;;26.53;;
9821;SDS011;4950;46.042;14.472;2022-12-20T11:13:46;32.80;;;25.47;;
9821;SDS011;4950;46.042;14.472;2022-12-20T11:19:12;34.20;;;25.63;;
9821;SDS011;4950;46.042;14.472;2022-12-20T11:21:58;33.80;;;25.20;;
9821;SDS011;4950;46.042;14.472;2022-12-20T11:24:32;33.17;;;27.50;;
9821;SDS011;4950;46.042;14.472;2022-12-20T11:27:13;33.73;;;26.17;;
9821;SDS011;4950;46.042;14.472;2022-12-20T11:29:50;34.33;;;26.33;;
9821;SDS011;4950;46.042;14.472;2022-12-20T11:32:32;34.33;;;26.40;;
9821;SDS011;4950;46.042;14.472;2022-12-20T11:35:12;37.63;;;26.50;;
9821;SDS011;4950;46.042;14.472;2022-12-20T11:37:45;33.13;;;25.13;;
9821;SDS011;4950;46.042;14.472;2022-12-20T11:40:28;32.87;;;25.17;;
9821;SDS011;4950;46.042;14.472;2022-12-20T11:43:13;32.87;;;25.77;;
9821;SDS011;4950;46.042;14.472;2022-12-20T11:45:56;34.77;;;26.80;;
9821;SDS011;4950;46.042;14.472;2022-12-20T11:48:38;31.10;;;25.13;;
9821;SDS011;4950;46.042;14.472;2022-12-20T11:51:17;30.97;;;24.27;;
9821;SDS011;4950;46.042;14.472;2022-12-20T11:53:51;36.13;;;26.77;;
9821;SDS011;4950;46.042;14.472;2022-12-20T11:56:33;31.93;;;25.33;;
9821;SDS011;4950;46.042;14.472;2022-12-20T11:59:02;31.47;;;26.33;;
9821;SDS011;4950;46.042;14.472;2022-12-20T12:01:37;33.10;;;26.50;;
9821;SDS011;4950;46.042;14.472;2022-12-20T12:04:09;31.90;;;25.90;;
9821;SDS011;4950;46.042;14.472;2022-12-20T12:06:40;31.27;;;25.23;;
9821;SDS011;4950;46.042;14.472;2022-12-20T12:09:14;34.57;;;26.77;;
9821;SDS011;4950;46.042;14.472;2022-12-20T12:11:48;34.50;;;27.47;;
9821;SDS011;4950;46.042;14.472;2022-12-20T12:14:27;38.67;;;26.60;;
9821;SDS011;4950;46.042;14.472;2022-12-20T12:17:01;31.23;;;25.37;;
9821;SDS011;4950;46.042;14.472;2022-12-20T12:19:35;32.40;;;25.87;;
9821;SDS011;4950;46.042;14.472;2022-12-20T12:22:08;34.83;;;26.23;;
9821;SDS011;4950;46.042;14.472;2022-12-20T12:24:42;35.27;;;26.17;;
9821;SDS011;4950;46.042;14.472;2022-12-20T12:27:18;32.20;;;25.73;;
9821;SDS011;4950;46.042;14.472;2022-12-20T12:29:48;30.73;;;23.97;;
9821;SDS011;4950;46.042;14.472;2022-12-20T12:32:18;33.30;;;26.37;;
9821;SDS011;4950;46.042;14.472;2022-12-20T12:34:56;31.90;;;26.10;;
9821;SDS011;4950;46.042;14.472;2022-12-20T12:40:42;35.77;;;25.97;;
9821;SDS011;4950;46.042;14.472;2022-12-20T12:46:16;34.10;;;25.60;;
9821;SDS011;4950;46.042;14.472;2022-12-20T12:48:50;34.57;;;26.50;;
9821;SDS011;4950;46.042;14.472;2022-12-20T12:51:22;32.77;;;26.43;;
9821;SDS011;4950;46.042;14.472;2022-12-20T12:53:53;30.70;;;25.07;;
9821;SDS011;4950;46.042;14.472;2022-12-20T12:56:40;32.40;;;25.37;;
9821;SDS011;4950;46.042;14.472;2022-12-20T13:05:33;33.40;;;25.93;;
9821;SDS011;4950;46.042;14.472;2022-12-20T13:08:00;34.73;;;26.50;;
9821;SDS011;4950;46.042;14.472;2022-12-20T13:13:26;30.63;;;25.47;;
9821;SDS011;4950;46.042;14.472;2022-12-20T13:16:09;31.40;;;25.50;;
9821;SDS011;4950;46.042;14.472;2022-12-20T13:18:37;34.63;;;25.57;;
9821;SDS011;4950;46.042;14.472;2022-12-20T13:21:16;30.57;;;25.60;;
9821;SDS011;4950;46.042;14.472;2022-12-20T13:27:21;35.43;;;27.30;;
9821;SDS011;4950;46.042;14.472;2022-12-20T13:29:52;33.83;;;26.23;;
9821;SDS011;4950;46.042;14.472;2022-12-20T13:38:36;35.67;;;26.90;;
9821;SDS011;4950;46.042;14.472;2022-12-20T13:41:10;33.27;;;26.13;;
9821;SDS011;4950;46.042;14.472;2022-12-20T13:43:43;30.07;;;24.07;;
9821;SDS011;4950;46.042;14.472;2022-12-20T13:46:17;30.00;;;24.53;;
9821;SDS011;4950;46.042;14.472;2022-12-20T13:48:48;31.37;;;24.73;;
9821;SDS011;4950;46.042;14.472;2022-12-20T13:51:18;31.90;;;24.83;;
9821;SDS011;4950;46.042;14.472;2022-12-20T13:53:50;32.00;;;25.03;;
9821;SDS011;4950;46.042;14.472;2022-12-20T13:56:20;37.70;;;30.27;;
9821;SDS011;4950;46.042;14.472;2022-12-20T13:59:02;34.23;;;27.53;;
9821;SDS011;4950;46.042;14.472;2022-12-20T14:01:32;36.13;;;27.10;;
9821;SDS011;4950;46.042;14.472;2022-12-20T14:04:02;30.87;;;24.57;;
9821;SDS011;4950;46.042;14.472;2022-12-20T14:06:31;35.57;;;26.90;;
9821;SDS011;4950;46.042;14.472;2022-12-20T14:08:58;34.03;;;26.73;;
9821;SDS011;4950;46.042;14.472;2022-12-20T14:11:25;34.70;;;28.63;;
9821;SDS011;4950;46.042;14.472;2022-12-20T14:13:53;34.97;;;27.33;;
9821;SDS011;4950;46.042;14.472;2022-12-20T14:16:22;34.50;;;27.53;;
9821;SDS011;4950;46.042;14.472;2022-12-20T14:18:58;37.23;;;29.00;;
9821;SDS011;4950;46.042;14.472;2022-12-20T14:21:27;33.37;;;28.17;;
9821;SDS011;4950;46.042;14.472;2022-12-20T14:23:54;35.73;;;28.40;;
9821;SDS011;4950;46.042;14.472;2022-12-20T14:26:23;36.30;;;29.17;;
9821;SDS011;4950;46.042;14.472;2022-12-20T14:28:52;33.73;;;27.33;;
9821;SDS011;4950;46.042;14.472;2022-12-20T14:31:22;35.07;;;29.03;;
9821;SDS011;4950;46.042;14.472;2022-12-20T14:33:50;35.73;;;29.77;;
9821;SDS011;4950;46.042;14.472;2022-12-20T14:36:27;36.47;;;28.80;;
9821;SDS011;4950;46.042;14.472;2022-12-20T14:38:54;40.87;;;29.83;;
9821;SDS011;4950;46.042;14.472;2022-12-20T14:41:28;38.10;;;30.13;;
9821;SDS011;4950;46.042;14.472;2022-12-20T14:43:57;40.03;;;32.77;;
9821;SDS011;4950;46.042;14.472;2022-12-20T14:46:27;36.57;;;31.53;;
9821;SDS011;4950;46.042;14.472;2022-12-20T14:49:06;39.97;;;30.80;;
9821;SDS011;4950;46.042;14.472;2022-12-20T14:51:43;42.87;;;31.30;;
9821;SDS011;4950;46.042;14.472;2022-12-20T14:54:11;40.67;;;30.77;;
9821;SDS011;4950;46.042;14.472;2022-12-20T14:56:44;39.83;;;30.87;;
9821;SDS011;4950;46.042;14.472;2022-12-20T14:59:12;38.57;;;31.13;;
9821;SDS011;4950;46.042;14.472;2022-12-20T15:01:41;37.67;;;30.37;;
9821;SDS011;4950;46.042;14.472;2022-12-20T15:04:21;36.73;;;30.60;;
9821;SDS011;4950;46.042;14.472;2022-12-20T15:06:51;40.03;;;31.93;;
9821;SDS011;4950;46.042;14.472;2022-12-20T15:09:18;38.37;;;31.20;;
9821;SDS011;4950;46.042;14.472;2022-12-20T15:11:45;38.93;;;30.60;;
9821;SDS011;4950;46.042;14.472;2022-12-20T15:14:18;42.17;;;32.27;;
9821;SDS011;4950;46.042;14.472;2022-12-20T15:16:49;40.90;;;32.33;;